Time;durP1;ratioP1;P1;durP2;ratioP2;P2;SDS_P1;SDS_P2;PMS_P1;PMS_P2;Temp;Humidity;BMP_temperature;BMP_pressure;BME280_temperature;BME280_humidity;BME280_pressure;Samples;Min_cycle;Max_cycle;Signal;HPM_P1;HPM_P2
2022/01/22 00:00:22;;;;;;;45.00;31.73;;;;;;;;;;5056784;28;20028;-50
2022/01/22 00:02:48;;;;;;;38.33;26.90;;;;;;;;;;5055324;28;20120;-47
2022/01/22 00:05:14;;;;;;;31.48;21.23;;;;;;;;;;5055584;28;20028;-48
2022/01/22 00:07:40;;;;;;;22.45;18.13;;;;;;;;;;5053979;28;20019;-47
2022/01/22 00:10:13;;;;;;;21.83;17.92;;;;;;;;;;5060163;28;20024;-46
2022/01/22 00:15:08;;;;;;;29.90;19.42;;;;;;;;;;5055784;28;20024;-47
2022/01/22 00:17:33;;;;;;;35.00;21.98;;;;;;;;;;5060272;28;20021;-45
2022/01/22 00:19:59;;;;;;;30.45;22.17;;;;;;;;;;5056037;28;20028;-48
2022/01/22 00:22:28;;;;;;;34.17;21.45;;;;;;;;;;5057534;28;20465;-47
2022/01/22 00:24:57;;;;;;;39.78;19.05;;;;;;;;;;5054353;28;20115;-43
2022/01/22 00:27:22;;;;;;;33.85;24.58;;;;;;;;;;5055355;28;20036;-47
2022/01/22 00:29:48;;;;;;;36.13;22.52;;;;;;;;;;5054697;28;20024;-45
2022/01/22 00:32:13;;;;;;;43.75;24.13;;;;;;;;;;5055093;28;20028;-44
2022/01/22 00:34:38;;;;;;;21.15;17.73;;;;;;;;;;5055160;28;20110;-46
2022/01/22 00:37:04;;;;;;;30.77;19.88;;;;;;;;;;5055091;28;20028;-44
2022/01/22 00:39:30;;;;;;;23.98;21.52;;;;;;;;;;5060109;28;20039;-44
2022/01/22 00:41:55;;;;;;;23.70;21.23;;;;;;;;;;5056238;28;20478;-47
2022/01/22 00:44:20;;;;;;;26.33;18.17;;;;;;;;;;5060733;28;20016;-49
2022/01/22 00:46:46;;;;;;;20.20;13.43;;;;;;;;;;5055222;28;20036;-44
2022/01/22 00:49:11;;;;;;;16.65;12.43;;;;;;;;;;5053810;28;20526;-51
2022/01/22 00:51:36;;;;;;;16.30;10.52;;;;;;;;;;5057714;28;20021;-46
2022/01/22 00:54:02;;;;;;;16.42;9.93;;;;;;;;;;5052515;28;20035;-47
2022/01/22 00:56:27;;;;;;;10.05;9.05;;;;;;;;;;5056575;28;20045;-45
2022/01/22 00:58:52;;;;;;;22.92;10.05;;;;;;;;;;5058526;28;20476;-46
2022/01/22 01:01:18;;;;;;;12.60;8.93;;;;;;;;;;5057932;28;20152;-44
2022/01/22 01:03:43;;;;;;;11.38;8.70;;;;;;;;;;5057862;28;20028;-47
2022/01/22 01:06:08;;;;;;;26.42;10.27;;;;;;;;;;5057979;28;20028;-46
2022/01/22 01:08:35;;;;;;;11.75;7.28;;;;;;;;;;5051988;28;20033;-46
2022/01/22 01:11:00;;;;;;;17.35;8.10;;;;;;;;;;5053615;28;20041;-50
2022/01/22 01:13:28;;;;;;;13.65;8.00;;;;;;;;;;5054175;28;20037;-48
2022/01/22 01:16:16;;;;;;;14.30;9.15;;;;;;;;;;5051970;28;20109;-43
2022/01/22 01:32:25;;;;;;;20.17;7.07;;;;;;;;;;5054948;28;20023;-46
2022/01/22 01:34:51;;;;;;;14.27;9.70;;;;;;;;;;5055885;28;20025;-46
2022/01/22 01:37:18;;;;;;;19.90;11.32;;;;;;;;;;5054090;28;20094;-46
2022/01/22 01:39:46;;;;;;;18.42;9.50;;;;;;;;;;5055211;28;20405;-49
2022/01/22 01:42:31;;;;;;;20.75;10.60;;;;;;;;;;5056267;28;20426;-48
2022/01/22 01:45:00;;;;;;;12.18;9.45;;;;;;;;;;5053423;28;20073;-44
2022/01/22 01:47:25;;;;;;;18.48;10.05;;;;;;;;;;5054492;28;20040;-48
2022/01/22 01:49:51;;;;;;;19.73;10.77;;;;;;;;;;5054194;28;20482;-46
2022/01/22 01:52:23;;;;;;;13.02;8.60;;;;;;;;;;5054206;28;20047;-44
2022/01/22 01:57:38;;;;;;;15.82;10.15;;;;;;;;;;5061372;28;20401;-49
2022/01/22 02:00:05;;;;;;;13.27;9.18;;;;;;;;;;5064028;28;20059;-45
2022/01/22 02:02:32;;;;;;;17.40;8.52;;;;;;;;;;5056477;28;20029;-44
2022/01/22 02:04:58;;;;;;;10.23;7.15;;;;;;;;;;5060291;28;20511;-46
2022/01/22 02:07:23;;;;;;;13.88;6.70;;;;;;;;;;5058580;28;20079;-46
2022/01/22 02:09:48;;;;;;;11.45;7.50;;;;;;;;;;5063243;28;20104;-47
2022/01/22 02:12:35;;;;;;;15.43;6.95;;;;;;;;;;5064144;28;20021;-47
2022/01/22 02:25:57;;;;;;;13.23;10.75;;;;;;;;;;5059847;28;20589;-44
2022/01/22 02:28:23;;;;;;;15.05;11.10;;;;;;;;;;5060739;28;20232;-50
2022/01/22 02:30:52;;;;;;;12.95;8.68;;;;;;;;;;5059973;28;20525;-44
2022/01/22 02:36:01;;;;;;;20.58;9.68;;;;;;;;;;5065469;28;20090;-49
2022/01/22 02:38:49;;;;;;;18.83;9.82;;;;;;;;;;5060075;28;20047;-51
2022/01/22 02:41:18;;;;;;;19.60;8.85;;;;;;;;;;5058837;28;20068;-45
2022/01/22 02:43:46;;;;;;;13.70;8.88;;;;;;;;;;5061569;28;20121;-48
2022/01/22 02:46:14;;;;;;;20.17;8.75;;;;;;;;;;5057317;28;20029;-44
2022/01/22 02:48:39;;;;;;;15.60;7.80;;;;;;;;;;5059869;28;20020;-47
2022/01/22 02:51:05;;;;;;;10.65;7.43;;;;;;;;;;5065483;28;20037;-46
2022/01/22 02:53:32;;;;;;;12.07;6.43;;;;;;;;;;5056082;28;20024;-49
2022/01/22 02:56:01;;;;;;;14.65;6.85;;;;;;;;;;5059018;28;20139;-49
2022/01/22 02:58:27;;;;;;;10.38;5.47;;;;;;;;;;5058212;28;20481;-46
2022/01/22 03:00:52;;;;;;;6.80;5.53;;;;;;;;;;5065111;28;20060;-47
2022/01/22 03:03:17;;;;;;;8.38;7.10;;;;;;;;;;5056440;28;20043;-44
2022/01/22 03:05:42;;;;;;;13.68;6.15;;;;;;;;;;5058939;28;20105;-50
2022/01/22 03:08:10;;;;;;;11.80;8.63;;;;;;;;;;5057031;28;20030;-48
2022/01/22 03:10:36;;;;;;;9.98;6.40;;;;;;;;;;5054282;28;20060;-49
2022/01/22 03:18:11;;;;;;;12.32;5.95;;;;;;;;;;5058129;28;20059;-46
2022/01/22 03:28:41;;;;;;;20.40;9.40;;;;;;;;;;5057943;28;20039;-49
2022/01/22 03:31:07;;;;;;;13.43;8.07;;;;;;;;;;5060331;28;20040;-46
2022/01/22 03:33:32;;;;;;;14.55;6.53;;;;;;;;;;5056402;28;20421;-44
2022/01/22 03:35:59;;;;;;;22.40;7.70;;;;;;;;;;5056875;28;20009;-51
2022/01/22 03:38:25;;;;;;;10.25;7.78;;;;;;;;;;5057505;28;20020;-48
2022/01/22 03:40:50;;;;;;;8.65;6.43;;;;;;;;;;5059624;28;20098;-47
2022/01/22 03:43:17;;;;;;;11.85;6.35;;;;;;;;;;5058183;28;20043;-50
2022/01/22 03:45:42;;;;;;;8.77;6.40;;;;;;;;;;5056061;28;20107;-48
2022/01/22 03:48:07;;;;;;;16.70;7.35;;;;;;;;;;5058070;28;20165;-49
2022/01/22 03:50:32;;;;;;;20.55;6.15;;;;;;;;;;5055093;28;20032;-47
2022/01/22 03:52:58;;;;;;;12.50;5.45;;;;;;;;;;5051859;28;20021;-49
2022/01/22 03:55:39;;;;;;;13.02;5.97;;;;;;;;;;5052780;28;20072;-46
2022/01/22 03:58:05;;;;;;;10.57;5.68;;;;;;;;;;5055640;28;20025;-51
2022/01/22 04:00:30;;;;;;;16.00;6.85;;;;;;;;;;5055162;28;20096;-47
2022/01/22 04:06:30;;;;;;;9.60;4.90;;;;;;;;;;5044518;28;20118;-47
2022/01/22 04:08:52;;;;;;;6.57;3.58;;;;;;;;;;5044403;28;20051;-48
2022/01/22 04:11:18;;;;;;;7.68;3.70;;;;;;;;;;5051825;28;20052;-45
2022/01/22 04:13:45;;;;;;;10.75;3.10;;;;;;;;;;5054152;28;20029;-44
2022/01/22 04:16:13;;;;;;;9.77;3.90;;;;;;;;;;5054592;28;20029;-48
2022/01/22 04:26:56;;;;;;;12.18;4.07;;;;;;;;;;5057778;28;20028;-47
2022/01/22 04:29:22;;;;;;;5.82;3.65;;;;;;;;;;5053717;28;20551;-45
2022/01/22 04:31:48;;;;;;;8.30;3.83;;;;;;;;;;5057208;28;20032;-47
2022/01/22 04:34:13;;;;;;;9.15;4.47;;;;;;;;;;5056331;28;20509;-46
2022/01/22 04:36:39;;;;;;;6.40;4.03;;;;;;;;;;5056539;28;20017;-44
2022/01/22 04:39:04;;;;;;;12.05;4.07;;;;;;;;;;5056105;28;20074;-45
2022/01/22 04:41:29;;;;;;;8.75;4.20;;;;;;;;;;5058652;28;20112;-45
2022/01/22 04:43:59;;;;;;;13.10;4.53;;;;;;;;;;5060060;28;20545;-51
2022/01/22 04:46:47;;;;;;;15.80;4.07;;;;;;;;;;5055246;28;20146;-48
2022/01/22 04:52:30;;;;;;;16.05;3.53;;;;;;;;;;5055327;28;20386;-48
2022/01/22 04:55:00;;;;;;;11.48;5.60;;;;;;;;;;5055377;28;20036;-45
2022/01/22 04:57:30;;;;;;;11.13;5.03;;;;;;;;;;5053906;28;20033;-48
2022/01/22 04:59:55;;;;;;;10.98;4.40;;;;;;;;;;5053914;28;20091;-48
2022/01/22 05:02:21;;;;;;;9.90;5.32;;;;;;;;;;5059062;28;20013;-45
2022/01/22 05:04:46;;;;;;;8.77;5.25;;;;;;;;;;5055243;28;20021;-47
2022/01/22 05:07:11;;;;;;;10.25;4.28;;;;;;;;;;5055827;28;20099;-44
2022/01/22 05:09:37;;;;;;;5.72;3.70;;;;;;;;;;5053090;28;20031;-47
2022/01/22 05:12:04;;;;;;;11.13;4.13;;;;;;;;;;5053647;28;20035;-45
2022/01/22 05:14:29;;;;;;;12.35;4.32;;;;;;;;;;5054698;28;20017;-48
2022/01/22 05:16:56;;;;;;;7.25;4.43;;;;;;;;;;5055875;28;20082;-48
2022/01/22 05:20:12;;;;;;;9.10;5.07;;;;;;;;;;5052917;28;20049;-47
2022/01/22 05:22:30;;;;;;;4.72;3.47;;;;;;;;;;5048539;28;20078;-47
2022/01/22 05:24:56;;;;;;;24.92;9.30;;;;;;;;;;5054023;28;20108;-48
2022/01/22 05:27:38;;;;;;;9.05;5.72;;;;;;;;;;5055375;28;20078;-46
2022/01/22 05:30:36;;;;;;;9.80;4.45;;;;;;;;;;5056022;28;20156;-48
2022/01/22 05:38:07;;;;;;;6.85;5.47;;;;;;;;;;5057741;28;20031;-45
2022/01/22 05:40:32;;;;;;;13.27;5.43;;;;;;;;;;5055877;28;20021;-44
2022/01/22 05:42:57;;;;;;;15.48;4.97;;;;;;;;;;5058634;28;20036;-46
2022/01/22 05:45:23;;;;;;;11.73;5.03;;;;;;;;;;5055467;28;20025;-50
2022/01/22 05:47:48;;;;;;;4.80;4.03;;;;;;;;;;5051642;28;20025;-45
2022/01/22 05:50:26;;;;;;;31.98;3.97;;;;;;;;;;5054789;28;20496;-45
2022/01/22 05:52:57;;;;;;;4.70;2.85;;;;;;;;;;5053723;28;20020;-45
2022/01/22 05:55:41;;;;;;;6.80;3.50;;;;;;;;;;5052896;28;20060;-49
2022/01/22 06:00:52;;;;;;;12.05;4.43;;;;;;;;;;5059164;28;20053;-45
2022/01/22 06:03:17;;;;;;;4.32;2.75;;;;;;;;;;5053302;28;20043;-48
2022/01/22 06:05:42;;;;;;;13.43;3.90;;;;;;;;;;5052304;28;20386;-48
2022/01/22 06:08:08;;;;;;;16.27;5.03;;;;;;;;;;5055619;28;20043;-47
2022/01/22 06:10:34;;;;;;;6.05;3.40;;;;;;;;;;5052930;28;20048;-50
2022/01/22 06:13:15;;;;;;;7.30;2.70;;;;;;;;;;5055685;28;20056;-47
2022/01/22 06:15:40;;;;;;;10.38;5.25;;;;;;;;;;5054860;28;20103;-46
2022/01/22 06:18:06;;;;;;;7.30;3.30;;;;;;;;;;5055087;28;20108;-49
2022/01/22 06:20:32;;;;;;;11.75;5.07;;;;;;;;;;5054190;28;20095;-45
2022/01/22 06:22:57;;;;;;;8.68;5.60;;;;;;;;;;5052033;28;20028;-45
2022/01/22 06:25:22;;;;;;;11.27;6.45;;;;;;;;;;5057372;28;20155;-47
2022/01/22 06:27:48;;;;;;;5.90;5.22;;;;;;;;;;5056212;28;20032;-47
2022/01/22 06:30:13;;;;;;;8.55;5.50;;;;;;;;;;5056464;28;20017;-45
2022/01/22 06:32:38;;;;;;;6.05;4.55;;;;;;;;;;5060707;28;20020;-49
2022/01/22 06:35:04;;;;;;;5.22;4.57;;;;;;;;;;5055329;28;20029;-45
2022/01/22 06:37:29;;;;;;;7.70;6.05;;;;;;;;;;5057425;28;20655;-47
2022/01/22 06:42:33;;;;;;;4.97;3.90;;;;;;;;;;5060806;28;20193;-46
2022/01/22 06:44:59;;;;;;;9.57;4.85;;;;;;;;;;5058705;28;20049;-46
2022/01/22 06:47:25;;;;;;;9.73;4.88;;;;;;;;;;5059654;28;20049;-51
2022/01/22 06:49:50;;;;;;;13.95;7.53;;;;;;;;;;5059434;28;20021;-47
2022/01/22 06:52:16;;;;;;;8.35;5.32;;;;;;;;;;5058958;28;20410;-45
2022/01/22 06:54:42;;;;;;;14.27;7.03;;;;;;;;;;5057466;28;20016;-46
2022/01/22 06:57:07;;;;;;;13.23;7.63;;;;;;;;;;5056542;28;20040;-50
2022/01/22 06:59:33;;;;;;;8.85;6.13;;;;;;;;;;5055608;28;20139;-49
2022/01/22 07:01:58;;;;;;;6.72;5.38;;;;;;;;;;5058695;28;20153;-47
2022/01/22 07:04:23;;;;;;;9.18;6.28;;;;;;;;;;5059418;28;20461;-49
2022/01/22 07:06:48;;;;;;;10.27;4.43;;;;;;;;;;5056683;28;20039;-52
2022/01/22 07:09:14;;;;;;;9.65;6.50;;;;;;;;;;5063572;28;20025;-51
2022/01/22 07:11:39;;;;;;;11.68;7.63;;;;;;;;;;5058514;28;20104;-48
2022/01/22 07:14:05;;;;;;;13.73;10.15;;;;;;;;;;5058672;28;20517;-49
2022/01/22 07:16:30;;;;;;;13.43;6.90;;;;;;;;;;5055151;28;20458;-44
2022/01/22 07:19:00;;;;;;;7.75;5.38;;;;;;;;;;5060147;28;20028;-47
2022/01/22 07:21:28;;;;;;;14.50;7.93;;;;;;;;;;5056759;28;20052;-47
2022/01/22 07:24:22;;;;;;;17.13;5.10;;;;;;;;;;5054456;28;20021;-51
2022/01/22 07:26:39;;;;;;;9.55;6.57;;;;;;;;;;5055223;28;20052;-46
2022/01/22 07:29:04;;;;;;;12.23;7.43;;;;;;;;;;5056681;28;20044;-48
2022/01/22 07:31:29;;;;;;;17.02;7.13;;;;;;;;;;5056835;28;20085;-49
2022/01/22 07:33:55;;;;;;;13.50;8.38;;;;;;;;;;5058543;28;20017;-46
2022/01/22 07:36:20;;;;;;;12.63;6.80;;;;;;;;;;5056107;28;20580;-50
2022/01/22 07:38:45;;;;;;;12.40;8.18;;;;;;;;;;5056260;28;20545;-50
2022/01/22 07:41:12;;;;;;;13.93;8.20;;;;;;;;;;5057782;28;20025;-49
2022/01/22 07:43:38;;;;;;;6.65;4.70;;;;;;;;;;5054497;28;20067;-50
2022/01/22 07:46:04;;;;;;;10.65;5.95;;;;;;;;;;5059034;28;20060;-45
2022/01/22 07:48:30;;;;;;;8.57;6.43;;;;;;;;;;5055611;28;20024;-47
2022/01/22 07:50:55;;;;;;;23.15;10.43;;;;;;;;;;5056171;28;20020;-36
2022/01/22 07:53:20;;;;;;;15.23;10.50;;;;;;;;;;5055481;28;20043;-36
2022/01/22 07:55:46;;;;;;;13.27;9.63;;;;;;;;;;5056676;28;20049;-37
2022/01/22 07:58:11;;;;;;;11.80;8.40;;;;;;;;;;5054472;28;20420;-37
2022/01/22 08:00:37;;;;;;;13.50;10.93;;;;;;;;;;5053751;28;20037;-40
2022/01/22 08:03:03;;;;;;;15.52;9.40;;;;;;;;;;5057510;28;20460;-36
2022/01/22 08:05:28;;;;;;;11.02;9.93;;;;;;;;;;5055719;28;20029;-36
2022/01/22 08:07:54;;;;;;;57.58;17.98;;;;;;;;;;5057168;28;20102;-36
2022/01/22 08:10:19;;;;;;;35.65;12.73;;;;;;;;;;5058139;28;20083;-37
2022/01/22 08:12:48;;;;;;;16.10;11.77;;;;;;;;;;5055429;28;20088;-37
2022/01/22 08:15:14;;;;;;;17.23;11.80;;;;;;;;;;5052923;28;20032;-36
2022/01/22 08:17:40;;;;;;;16.35;10.95;;;;;;;;;;5055553;28;20027;-36
2022/01/22 08:20:05;;;;;;;24.58;15.80;;;;;;;;;;5052230;28;20107;-36
2022/01/22 08:22:31;;;;;;;42.30;15.77;;;;;;;;;;5054759;28;20028;-37
2022/01/22 08:24:59;;;;;;;19.80;15.40;;;;;;;;;;5055752;28;20021;-37
2022/01/22 08:29:53;;;;;;;29.52;18.23;;;;;;;;;;5054958;28;20625;-36
2022/01/22 08:37:37;;;;;;;24.90;14.88;;;;;;;;;;5057164;28;20027;-37
2022/01/22 08:40:06;;;;;;;18.88;15.60;;;;;;;;;;5056963;28;20432;-37
2022/01/22 08:42:32;;;;;;;24.75;21.58;;;;;;;;;;5056884;28;20497;-36
2022/01/22 08:44:57;;;;;;;38.65;16.30;;;;;;;;;;5056797;28;20032;-37
2022/01/22 08:47:22;;;;;;;33.25;21.23;;;;;;;;;;5056034;28;20012;-37
2022/01/22 08:49:48;;;;;;;19.58;17.63;;;;;;;;;;5052254;28;20086;-40
2022/01/22 08:52:15;;;;;;;20.17;16.00;;;;;;;;;;5055076;28;20024;-36
2022/01/22 08:54:41;;;;;;;23.88;15.00;;;;;;;;;;5050776;28;20035;-36
2022/01/22 08:57:07;;;;;;;37.70;23.25;;;;;;;;;;5052907;28;20393;-38
2022/01/22 08:59:32;;;;;;;67.15;49.55;;;;;;;;;;5053173;28;20107;-37
2022/01/22 09:01:58;;;;;;;75.80;53.75;;;;;;;;;;5054917;28;20206;-37
2022/01/22 09:04:24;;;;;;;75.25;49.55;;;;;;;;;;5059098;28;20394;-36
2022/01/22 09:06:49;;;;;;;129.10;85.15;;;;;;;;;;5057278;28;20104;-36
2022/01/22 09:09:14;;;;;;;87.20;61.53;;;;;;;;;;5057442;28;20367;-36
2022/01/22 09:11:41;;;;;;;78.32;56.50;;;;;;;;;;5055911;28;20090;-36
2022/01/22 09:14:07;;;;;;;72.10;57.05;;;;;;;;;;5055897;28;20024;-36
2022/01/22 09:16:32;;;;;;;64.40;49.35;;;;;;;;;;5054999;28;20017;-36
2022/01/22 09:19:05;;;;;;;71.50;52.53;;;;;;;;;;5051791;28;20085;-40
2022/01/22 09:21:31;;;;;;;53.22;41.83;;;;;;;;;;5051974;28;20032;-37
2022/01/22 09:23:56;;;;;;;48.90;34.92;;;;;;;;;;5051731;28;20029;-37
2022/01/22 09:26:22;;;;;;;44.72;36.15;;;;;;;;;;5055991;28;20048;-36
2022/01/22 09:28:47;;;;;;;44.80;38.55;;;;;;;;;;5052619;28;20033;-37
2022/01/22 09:31:12;;;;;;;36.47;32.08;;;;;;;;;;5053419;28;20035;-36
2022/01/22 09:33:39;;;;;;;38.65;33.22;;;;;;;;;;5054269;28;20021;-37
2022/01/22 09:36:04;;;;;;;22.13;17.08;;;;;;;;;;5054440;28;20017;-36
2022/01/22 09:38:30;;;;;;;34.42;25.63;;;;;;;;;;5053501;28;20025;-37
2022/01/22 09:40:55;;;;;;;32.08;25.52;;;;;;;;;;5055140;28;20024;-37
2022/01/22 09:43:20;;;;;;;13.90;9.30;;;;;;;;;;5054622;28;20035;-36
2022/01/22 09:45:48;;;;;;;6.45;4.78;;;;;;;;;;5056856;28;20048;-37
2022/01/22 09:48:14;;;;;;;8.65;7.80;;;;;;;;;;5055395;28;20406;-37
2022/01/22 09:50:39;;;;;;;13.18;11.88;;;;;;;;;;5055165;28;20020;-37
2022/01/22 09:53:05;;;;;;;18.02;11.73;;;;;;;;;;5054726;28;20107;-36
2022/01/22 09:55:30;;;;;;;21.20;17.23;;;;;;;;;;5052796;28;20043;-36
2022/01/22 09:57:58;;;;;;;20.98;11.45;;;;;;;;;;5054495;28;20104;-36
2022/01/22 10:00:25;;;;;;;19.83;16.30;;;;;;;;;;5053073;28;20028;-36
2022/01/22 10:02:52;;;;;;;13.98;8.18;;;;;;;;;;5051989;28;20362;-36
2022/01/22 10:05:27;;;;;;;14.00;9.73;;;;;;;;;;5049051;28;20021;-38
2022/01/22 10:07:53;;;;;;;17.88;12.35;;;;;;;;;;5052588;28;20029;-36
2022/01/22 10:10:18;;;;;;;9.55;8.52;;;;;;;;;;5052690;28;20025;-37
2022/01/22 10:12:53;;;;;;;10.82;9.73;;;;;;;;;;5056496;28;20012;-37
2022/01/22 10:15:19;;;;;;;9.50;8.55;;;;;;;;;;5056296;28;20020;-37
2022/01/22 10:17:49;;;;;;;13.32;11.45;;;;;;;;;;5055264;28;20017;-37
2022/01/22 10:20:20;;;;;;;23.50;15.63;;;;;;;;;;5054455;28;20029;-36
2022/01/22 10:22:45;;;;;;;12.07;10.50;;;;;;;;;;5057166;28;20036;-37
2022/01/22 10:25:34;;;;;;;20.13;14.10;;;;;;;;;;5057228;28;20033;-36
2022/01/22 10:28:06;;;;;;;23.75;16.33;;;;;;;;;;5055464;28;20533;-41
2022/01/22 10:30:38;;;;;;;14.25;10.65;;;;;;;;;;5051720;28;20529;-37
2022/01/22 10:33:26;;;;;;;21.65;13.02;;;;;;;;;;5054482;28;20013;-36
2022/01/22 10:35:51;;;;;;;17.20;10.45;;;;;;;;;;5055628;28;20021;-37
2022/01/22 10:38:18;;;;;;;20.50;11.07;;;;;;;;;;5058632;28;20207;-37
2022/01/22 10:40:43;;;;;;;19.67;16.23;;;;;;;;;;5054454;28;20031;-37
2022/01/22 10:43:09;;;;;;;22.35;18.85;;;;;;;;;;5055946;28;20017;-37
2022/01/22 10:45:39;;;;;;;23.55;17.40;;;;;;;;;;5060928;28;20029;-37
2022/01/22 10:48:17;;;;;;;24.90;16.33;;;;;;;;;;5057606;28;20024;-37
2022/01/22 10:50:43;;;;;;;28.38;24.40;;;;;;;;;;5053652;28;20043;-40
2022/01/22 10:53:08;;;;;;;31.40;24.00;;;;;;;;;;5053260;28;20517;-36
2022/01/22 10:55:53;;;;;;;23.40;15.52;;;;;;;;;;5054742;28;20068;-37
2022/01/22 10:58:19;;;;;;;19.58;10.30;;;;;;;;;;5058634;28;20033;-37
2022/01/22 11:00:51;;;;;;;14.65;7.53;;;;;;;;;;5053453;28;20575;-37
2022/01/22 11:03:22;;;;;;;9.18;5.85;;;;;;;;;;5049718;28;20033;-37
2022/01/22 11:05:48;;;;;;;7.63;5.30;;;;;;;;;;5052956;28;20033;-36
2022/01/22 11:08:13;;;;;;;24.05;14.27;;;;;;;;;;5056997;28;20093;-40
2022/01/22 11:10:43;;;;;;;21.52;7.20;;;;;;;;;;5054055;28;20339;-37
2022/01/22 11:13:08;;;;;;;37.78;30.42;;;;;;;;;;5053532;28;20086;-37
2022/01/22 11:15:34;;;;;;;10.45;6.60;;;;;;;;;;5053193;28;20021;-37
2022/01/22 11:17:59;;;;;;;15.20;5.88;;;;;;;;;;5051528;28;20677;-39
2022/01/22 11:20:25;;;;;;;10.70;4.78;;;;;;;;;;5055763;28;20029;-38
2022/01/22 11:22:50;;;;;;;8.75;3.20;;;;;;;;;;5056802;28;20562;-42
2022/01/22 11:25:16;;;;;;;6.75;3.40;;;;;;;;;;5053224;28;20028;-40
2022/01/22 11:27:41;;;;;;;5.22;1.92;;;;;;;;;;5053163;28;20709;-37
2022/01/22 11:30:08;;;;;;;8.73;5.15;;;;;;;;;;5054962;28;20082;-39
2022/01/22 11:32:43;;;;;;;4.88;3.10;;;;;;;;;;5052183;28;20024;-37
2022/01/22 11:35:09;;;;;;;4.53;3.15;;;;;;;;;;5052947;28;20047;-38
2022/01/22 11:37:41;;;;;;;18.50;6.20;;;;;;;;;;5053576;28;20116;-38
2022/01/22 11:40:10;;;;;;;6.82;3.33;;;;;;;;;;5059397;28;20522;-38
2022/01/22 11:42:57;;;;;;;5.65;3.30;;;;;;;;;;5059070;28;20078;-39
2022/01/22 11:45:24;;;;;;;12.48;4.55;;;;;;;;;;5056380;28;20023;-38
2022/01/22 11:48:09;;;;;;;11.27;4.97;;;;;;;;;;5053907;28;20577;-39
2022/01/22 11:50:35;;;;;;;9.63;6.97;;;;;;;;;;5057404;28;20060;-41
2022/01/22 11:53:18;;;;;;;7.40;4.65;;;;;;;;;;5055850;28;20063;-38
2022/01/22 11:56:04;;;;;;;11.30;6.53;;;;;;;;;;5058138;28;20057;-39
2022/01/22 11:58:29;;;;;;;20.00;6.28;;;;;;;;;;5056968;28;20027;-37
2022/01/22 12:00:54;;;;;;;7.25;5.97;;;;;;;;;;5057574;28;20108;-38
2022/01/22 12:03:20;;;;;;;22.67;5.00;;;;;;;;;;5056754;28;20096;-38
2022/01/22 12:05:54;;;;;;;5.05;2.92;;;;;;;;;;5056570;28;20024;-42
2022/01/22 12:08:20;;;;;;;8.32;4.88;;;;;;;;;;5051729;28;20244;-39
2022/01/22 12:14:27;;;;;;;8.43;4.80;;;;;;;;;;5052848;28;20502;-41
2022/01/22 12:16:37;;;;;;;11.70;7.80;;;;;;;;;;5055078;28;20401;-37
2022/01/22 12:19:04;;;;;;;6.78;4.93;;;;;;;;;;5051400;28;20028;-44
2022/01/22 12:21:34;;;;;;;6.07;4.65;;;;;;;;;;5055512;28;20028;-39
2022/01/22 12:23:59;;;;;;;6.40;4.03;;;;;;;;;;5057935;28;20029;-38
2022/01/22 12:26:38;;;;;;;7.18;4.30;;;;;;;;;;5051855;28;20880;-39
2022/01/22 12:29:22;;;;;;;8.48;5.63;;;;;;;;;;5051336;28;20199;-37
2022/01/22 12:32:04;;;;;;;7.85;5.88;;;;;;;;;;5053373;28;20021;-40
2022/01/22 12:34:48;;;;;;;24.98;8.40;;;;;;;;;;5057547;28;20013;-42
2022/01/22 12:37:17;;;;;;;7.20;5.28;;;;;;;;;;5055248;28;20021;-39
2022/01/22 12:39:45;;;;;;;5.47;3.92;;;;;;;;;;5054737;28;20032;-37
2022/01/22 12:42:12;;;;;;;7.05;4.82;;;;;;;;;;5055111;28;20025;-44
2022/01/22 12:44:46;;;;;;;13.25;4.00;;;;;;;;;;5055132;28;20035;-38
2022/01/22 12:47:13;;;;;;;9.55;3.17;;;;;;;;;;5058257;28;20052;-38
2022/01/22 12:49:39;;;;;;;5.43;2.88;;;;;;;;;;5061196;28;20679;-37
2022/01/22 12:52:05;;;;;;;5.70;3.65;;;;;;;;;;5055884;28;20052;-38
2022/01/22 12:54:33;;;;;;;6.03;3.60;;;;;;;;;;5056642;28;20091;-40
2022/01/22 12:57:08;;;;;;;6.82;4.72;;;;;;;;;;5054897;28;20040;-38
2022/01/22 13:00:17;;;;;;;3.72;1.80;;;;;;;;;;5054957;28;20548;-41
2022/01/22 13:02:42;;;;;;;9.23;3.08;;;;;;;;;;5055035;28;20067;-39
2022/01/22 13:05:08;;;;;;;7.00;4.15;;;;;;;;;;5054989;28;20044;-40
2022/01/22 13:07:38;;;;;;;3.50;2.47;;;;;;;;;;5057283;28;20095;-40
2022/01/22 13:10:06;;;;;;;4.53;2.40;;;;;;;;;;5055615;28;20562;-37
2022/01/22 13:12:32;;;;;;;4.10;2.00;;;;;;;;;;5055487;28;20033;-38
2022/01/22 13:14:58;;;;;;;3.65;1.48;;;;;;;;;;5055413;28;20122;-45
2022/01/22 13:17:30;;;;;;;2.70;1.98;;;;;;;;;;5056668;28;20017;-41
2022/01/22 13:19:56;;;;;;;5.45;3.28;;;;;;;;;;5051447;28;20039;-38
2022/01/22 13:22:29;;;;;;;5.22;1.77;;;;;;;;;;5055006;28;20017;-38
2022/01/22 13:25:02;;;;;;;3.90;1.20;;;;;;;;;;5052261;28;20159;-40
2022/01/22 13:27:28;;;;;;;2.60;1.27;;;;;;;;;;5055764;28;20017;-39
2022/01/22 13:29:56;;;;;;;5.63;2.63;;;;;;;;;;5056501;28;20486;-39
2022/01/22 13:47:41;;;;;;;3.75;2.47;;;;;;;;;;5053002;28;20087;-39
2022/01/22 13:48:09;;;;;;;4.70;1.95;;;;;;;;;;5054496;28;20032;-38
2022/01/22 13:50:35;;;;;;;4.40;1.90;;;;;;;;;;5053542;28;20016;-38
2022/01/22 13:53:00;;;;;;;4.65;2.15;;;;;;;;;;5053154;28;20020;-38
2022/01/22 13:55:26;;;;;;;7.05;1.67;;;;;;;;;;5053017;28;20049;-41
2022/01/22 13:57:52;;;;;;;9.57;3.10;;;;;;;;;;5052916;28;20013;-37
2022/01/22 14:00:18;;;;;;;2.17;1.63;;;;;;;;;;5055731;28;20033;-39
2022/01/22 14:03:07;;;;;;;6.15;3.05;;;;;;;;;;5054060;28;20021;-43
2022/01/22 14:05:33;;;;;;;8.60;5.70;;;;;;;;;;5049832;28;20021;-39
2022/01/22 14:08:00;;;;;;;6.90;2.33;;;;;;;;;;5052951;28;20028;-41
2022/01/22 14:10:26;;;;;;;7.78;1.77;;;;;;;;;;5054882;28;20032;-38
2022/01/22 14:12:55;;;;;;;10.27;7.55;;;;;;;;;;5052520;28;20021;-43
2022/01/22 14:15:23;;;;;;;5.88;3.63;;;;;;;;;;5055985;28;20028;-39
2022/01/22 14:17:57;;;;;;;2.70;1.52;;;;;;;;;;5057462;28;20013;-42
2022/01/22 14:20:27;;;;;;;5.22;2.58;;;;;;;;;;5052170;28;20029;-40
2022/01/22 14:22:55;;;;;;;7.72;2.90;;;;;;;;;;5053709;28;20024;-39
2022/01/22 14:25:20;;;;;;;3.28;2.85;;;;;;;;;;5056998;28;20103;-39
2022/01/22 14:27:58;;;;;;;6.32;2.10;;;;;;;;;;5051081;28;20854;-40
2022/01/22 14:30:32;;;;;;;7.78;1.95;;;;;;;;;;5053613;28;20482;-38
2022/01/22 14:32:58;;;;;;;4.80;3.42;;;;;;;;;;5051254;28;20490;-40
2022/01/22 14:35:23;;;;;;;20.58;18.50;;;;;;;;;;5055082;28;20032;-38
2022/01/22 14:37:53;;;;;;;7.78;3.08;;;;;;;;;;5054800;28;20599;-39
2022/01/22 14:45:59;;;;;;;4.05;1.83;;;;;;;;;;5056590;28;20078;-40
2022/01/22 14:48:25;;;;;;;5.55;2.40;;;;;;;;;;5058233;28;20086;-38
2022/01/22 14:50:51;;;;;;;2.88;1.50;;;;;;;;;;5056424;28;20394;-39
2022/01/22 14:53:16;;;;;;;6.38;2.97;;;;;;;;;;5054892;28;20107;-40
2022/01/22 14:55:49;;;;;;;5.55;3.25;;;;;;;;;;5059486;28;20568;-38
2022/01/22 14:58:15;;;;;;;4.90;2.65;;;;;;;;;;5049852;28;20017;-38
2022/01/22 15:00:40;;;;;;;4.18;1.70;;;;;;;;;;5051806;28;20039;-37
2022/01/22 15:03:05;;;;;;;7.97;3.40;;;;;;;;;;5059440;28;20535;-38
2022/01/22 15:05:30;;;;;;;7.25;3.88;;;;;;;;;;5056727;28;20021;-37
2022/01/22 15:07:56;;;;;;;8.27;4.78;;;;;;;;;;5057612;28;20024;-38
2022/01/22 15:10:22;;;;;;;9.90;3.88;;;;;;;;;;5057396;28;20489;-39
2022/01/22 15:12:47;;;;;;;14.75;9.88;;;;;;;;;;5054522;28;20029;-39
2022/01/22 15:15:13;;;;;;;11.68;8.55;;;;;;;;;;5054421;28;20077;-37
2022/01/22 15:17:53;;;;;;;12.57;11.32;;;;;;;;;;5056073;28;20187;-37
2022/01/22 15:20:24;;;;;;;14.90;13.40;;;;;;;;;;5057614;28;20029;-38
2022/01/22 15:22:50;;;;;;;16.60;15.25;;;;;;;;;;5055879;28;20509;-40
2022/01/22 15:25:15;;;;;;;14.63;13.07;;;;;;;;;;5061462;28;20033;-39
2022/01/22 15:27:40;;;;;;;15.40;10.88;;;;;;;;;;5056455;28;20370;-40
2022/01/22 15:30:44;;;;;;;19.40;17.70;;;;;;;;;;5056830;28;20114;-37
2022/01/22 15:35:23;;;;;;;24.40;17.27;;;;;;;;;;5057396;28;20040;-40
2022/01/22 15:37:51;;;;;;;35.58;26.58;;;;;;;;;;5060395;28;20025;-38
2022/01/22 15:40:17;;;;;;;41.88;21.75;;;;;;;;;;5055842;28;20101;-38
2022/01/22 15:42:42;;;;;;;19.63;15.07;;;;;;;;;;5056078;28;20663;-38
2022/01/22 15:45:08;;;;;;;22.58;14.23;;;;;;;;;;5055326;28;20021;-39
2022/01/22 15:47:34;;;;;;;15.85;10.77;;;;;;;;;;5057491;28;20032;-37
2022/01/22 15:49:59;;;;;;;18.65;11.02;;;;;;;;;;5057374;28;20025;-39
2022/01/22 15:52:25;;;;;;;21.30;9.05;;;;;;;;;;5058904;28;20105;-37
2022/01/22 15:54:50;;;;;;;15.30;10.27;;;;;;;;;;5059792;28;20691;-36
2022/01/22 15:57:16;;;;;;;11.13;8.35;;;;;;;;;;5054806;28;20020;-36
2022/01/22 15:59:41;;;;;;;13.85;11.02;;;;;;;;;;5055991;28;20013;-37
2022/01/22 16:02:07;;;;;;;28.98;20.67;;;;;;;;;;5058911;28;20032;-36
2022/01/22 16:04:33;;;;;;;17.45;11.88;;;;;;;;;;5055537;28;20028;-36
2022/01/22 16:07:17;;;;;;;19.35;12.75;;;;;;;;;;5052754;28;20028;-36
2022/01/22 16:09:43;;;;;;;26.10;17.30;;;;;;;;;;5055224;28;20044;-39
2022/01/22 16:12:08;;;;;;;29.30;22.65;;;;;;;;;;5056880;28;20025;-38
2022/01/22 16:14:34;;;;;;;30.17;24.85;;;;;;;;;;5052766;28;20024;-36
2022/01/22 16:16:59;;;;;;;30.48;23.63;;;;;;;;;;5055837;28;20020;-39
2022/01/22 16:19:24;;;;;;;35.33;29.63;;;;;;;;;;5057975;28;20090;-36